Time;durP1;ratioP1;P1;durP2;ratioP2;P2;SDS_P1;SDS_P2;PMS_P1;PMS_P2;Temp;Humidity;BMP_temperature;BMP_pressure;BME280_temperature;BME280_humidity;BME280_pressure;Samples;Min_cycle;Max_cycle;Signal;HPM_P1;HPM_P2
2023/09/23 00:01:29;;;;;;;3.63;0.85;;;;;;;-145.69;72.24;52190.91;5134332;27;20208;-81
2023/09/23 00:03:55;;;;;;;2.20;0.87;;;;;;;-145.69;72.53;52226.53;5115151;27;20193;-81
2023/09/23 00:06:24;;;;;;;2.00;1.00;;;;;;;-145.69;71.63;52177.03;5136096;27;20223;-81
2023/09/23 00:08:51;;;;;;;3.37;1.10;;;;;;;-145.69;72.73;52210.72;5135996;27;20224;-82
2023/09/23 00:11:18;;;;;;;1.50;0.90;;;;;;;-145.69;72.71;52204.75;5135043;27;20278;-82
2023/09/23 00:13:45;;;;;;;2.10;0.82;;;;;;;-145.69;71.78;52204.75;5135552;27;20254;-81
2023/09/23 00:16:15;;;;;;;2.22;0.82;;;;;;;-145.69;71.17;52204.75;5130018;27;20795;-82
2023/09/23 00:18:43;;;;;;;1.33;1.00;;;;;;;-145.69;70.41;52173.09;5134828;27;20224;-81
2023/09/23 00:21:11;;;;;;;1.05;0.98;;;;;;;-145.69;70.11;52232.50;5135540;27;20204;-82
2023/09/23 00:23:38;;;;;;;3.50;1.08;;;;;;;-145.69;70.66;52212.69;5136260;27;20295;-82
2023/09/23 00:26:06;;;;;;;3.77;1.03;;;;;;;-145.69;70.65;52208.72;5121969;27;20201;-82
2023/09/23 00:28:36;;;;;;;1.08;0.85;;;;;;;-145.69;69.52;52184.97;5116748;28;20202;-82
2023/09/23 00:31:10;;;;;;;1.58;0.90;;;;;;;-145.69;70.11;52163.19;5133684;27;20277;-81
2023/09/23 00:33:41;;;;;;;2.63;0.98;;;;;;;-145.69;70.25;52220.59;5135332;27;20301;-82
2023/09/23 00:36:09;;;;;;;1.13;0.80;;;;;;;-145.69;70.43;52218.63;5129718;27;20275;-81
2023/09/23 00:38:40;;;;;;;4.05;1.50;;;;;;;-145.69;70.46;52194.88;5114086;27;20221;-81
2023/09/23 00:41:10;;;;;;;1.58;0.90;;;;;;;-145.69;69.91;52200.81;5114329;27;20212;-82
2023/09/23 00:43:38;;;;;;;1.05;0.80;;;;;;;-145.69;71.30;52163.19;5113194;28;20789;-82
2023/09/23 00:46:05;;;;;;;0.90;0.60;;;;;;;-145.69;70.95;52214.66;5126465;27;20196;-81
2023/09/23 00:48:38;;;;;;;1.50;0.70;;;;;;;-145.69;70.42;52204.75;5134131;27;20686;-82
2023/09/23 00:51:06;;;;;;;3.53;1.07;;;;;;;-145.69;69.48;52248.34;5135274;27;20565;-82
2023/09/23 00:53:35;;;;;;;3.70;0.70;;;;;;;-145.69;70.13;52214.66;5134614;27;20291;-82
2023/09/23 00:56:02;;;;;;;1.73;0.77;;;;;;;-145.69;71.76;52212.69;5120712;27;20475;-82
2023/09/23 00:58:29;;;;;;;3.83;1.00;;;;;;;-145.69;70.88;52220.59;5113220;28;20345;-81
2023/09/23 01:00:57;;;;;;;1.97;0.70;;;;;;;-145.69;70.59;52210.72;5131384;27;20196;-81
2023/09/23 01:03:25;;;;;;;1.63;1.00;;;;;;;-145.69;70.63;52236.44;5133663;27;20223;-81
2023/09/23 01:06:15;;;;;;;2.77;0.93;;;;;;;-145.69;69.89;52222.59;5134294;27;20671;-81
2023/09/23 01:08:42;;;;;;;1.70;0.90;;;;;;;-145.69;70.11;52226.53;5121638;27;20193;-80
2023/09/23 01:11:10;;;;;;;3.67;0.97;;;;;;;-145.69;70.39;52226.53;5133793;27;20239;-81
2023/09/23 01:13:37;;;;;;;1.00;0.90;;;;;;;-145.69;70.43;52222.59;5131333;27;20200;-83
2023/09/23 01:16:12;;;;;;;0.90;0.80;;;;;;;-145.69;70.21;52230.50;5133721;27;20200;-81
2023/09/23 01:18:40;;;;;;;1.37;0.90;;;;;;;-145.69;70.63;52230.50;5134049;27;20236;-81
2023/09/23 01:21:08;;;;;;;1.47;0.90;;;;;;;-145.69;69.90;52204.75;5133925;27;20204;-82
2023/09/23 01:23:36;;;;;;;1.60;0.93;;;;;;;-145.69;70.16;52234.47;5133990;27;20295;-81
2023/09/23 01:26:09;;;;;;;1.30;0.97;;;;;;;-145.69;69.51;52214.66;5116785;27;20200;-81
2023/09/23 01:28:36;;;;;;;1.33;0.83;;;;;;;-145.69;70.07;52202.78;5113499;28;20224;-81
2023/09/23 01:31:04;;;;;;;1.80;1.13;;;;;;;-145.69;70.06;52274.06;5113007;28;20229;-81
2023/09/23 01:33:34;;;;;;;1.73;0.90;;;;;;;-145.69;70.88;52232.50;5113546;28;20563;-81
2023/09/23 01:36:03;;;;;;;2.47;0.70;;;;;;;-145.69;70.26;52236.44;5113178;28;20208;-81
2023/09/23 01:38:29;;;;;;;0.87;0.80;;;;;;;-145.69;69.92;52226.53;5122988;28;20196;-81
2023/09/23 01:40:57;;;;;;;1.70;1.03;;;;;;;-145.69;69.98;52262.19;5134059;27;20218;-82
2023/09/23 01:43:30;;;;;;;2.03;1.00;;;;;;;-145.69;69.69;52234.47;5102676;27;20194;-81
2023/09/23 01:46:03;;;;;;;0.87;0.80;;;;;;;-145.69;70.28;52234.47;5113039;28;20231;-81
2023/09/23 01:48:30;;;;;;;1.50;0.97;;;;;;;-145.69;69.93;52250.31;5113114;28;20201;-81
2023/09/23 01:50:58;;;;;;;2.20;1.10;;;;;;;-145.69;69.93;52282.00;5113068;28;20320;-81
2023/09/23 01:53:28;;;;;;;1.10;0.90;;;;;;;-145.69;70.08;52250.31;5112427;28;20721;-81
2023/09/23 01:55:54;;;;;;;2.67;1.03;;;;;;;-145.69;69.66;52238.44;5112914;28;20652;-82
2023/09/23 01:58:23;;;;;;;2.60;1.00;;;;;;;-145.69;69.63;52216.66;5115556;28;20201;-81
2023/09/23 02:00:51;;;;;;;1.03;0.93;;;;;;;-145.69;69.71;52208.72;5114385;27;20751;-81
2023/09/23 02:03:17;;;;;;;1.93;1.13;;;;;;;-145.69;69.95;52264.16;5116077;28;20200;-81
2023/09/23 02:05:44;;;;;;;1.20;0.93;;;;;;;-145.69;70.01;52262.19;5133767;27;20205;-81
2023/09/23 02:08:10;;;;;;;3.00;1.10;;;;;;;-145.69;69.59;52232.50;5131887;27;20593;-82
2023/09/23 02:10:37;;;;;;;3.63;1.30;;;;;;;-145.69;70.49;52274.06;5133161;27;20316;-81
2023/09/23 02:13:03;;;;;;;1.40;0.87;;;;;;;-145.69;69.86;52210.72;5133161;27;20197;-81
2023/09/23 02:15:31;;;;;;;0.93;0.87;;;;;;;-145.69;70.01;52274.06;5133422;27;20247;-82
2023/09/23 02:17:58;;;;;;;1.90;0.80;;;;;;;-145.69;70.32;52258.22;5135071;27;20225;-82
2023/09/23 02:20:25;;;;;;;2.87;0.93;;;;;;;-145.69;70.13;52242.38;5137391;27;20334;-80
2023/09/23 02:22:53;;;;;;;1.37;0.90;;;;;;;-145.69;69.78;52228.53;5137429;27;20193;-81
2023/09/23 02:25:24;;;;;;;1.70;0.73;;;;;;;-145.69;70.33;52246.34;5117104;27;20254;-82
2023/09/23 02:27:52;;;;;;;3.80;1.10;;;;;;;-145.69;70.97;52232.50;5116552;28;20193;-81
2023/09/23 02:30:19;;;;;;;1.73;1.00;;;;;;;-145.69;70.50;52258.22;5125985;27;20579;-81
2023/09/23 02:32:47;;;;;;;1.83;0.80;;;;;;;-145.69;69.88;52234.47;5136811;27;20556;-81
2023/09/23 02:35:19;;;;;;;2.80;1.10;;;;;;;-145.69;70.66;52252.28;5136513;27;20242;-82
2023/09/23 02:37:47;;;;;;;9.40;1.20;;;;;;;-145.69;70.97;52258.22;5136239;27;20197;-82
2023/09/23 02:40:14;;;;;;;1.53;1.00;;;;;;;-145.69;70.78;52254.28;5137121;27;20196;-82
2023/09/23 02:42:42;;;;;;;1.23;1.00;;;;;;;-145.69;70.60;52266.16;5136909;27;20196;-81
2023/09/23 02:45:09;;;;;;;2.40;1.47;;;;;;;-145.69;71.16;52260.22;5123114;27;20225;-81
2023/09/23 02:47:37;;;;;;;3.20;1.10;;;;;;;-145.69;72.26;52258.22;5116020;28;20204;-82
2023/09/23 02:50:09;;;;;;;1.80;1.23;;;;;;;-145.69;71.13;52220.59;5116077;28;20205;-82
2023/09/23 02:52:39;;;;;;;3.40;1.13;;;;;;;-145.69;71.16;52246.34;5116421;28;20202;-82
2023/09/23 02:55:11;;;;;;;1.10;1.00;;;;;;;-145.69;70.83;52216.66;5132819;27;20196;-81
2023/09/23 02:57:37;;;;;;;1.67;1.00;;;;;;;-145.69;71.15;52256.25;5137126;27;20231;-82
2023/09/23 03:00:16;;;;;;;2.40;1.10;;;;;;;-145.69;71.02;52250.31;5135621;27;20213;-81
2023/09/23 03:02:48;;;;;;;1.40;1.00;;;;;;;-145.69;71.59;52234.47;5136647;27;20283;-82
2023/09/23 03:05:25;;;;;;;1.20;0.90;;;;;;;-145.69;71.37;52210.72;5118202;27;20276;-81
2023/09/23 03:07:52;;;;;;;2.67;1.00;;;;;;;-145.69;71.75;52242.38;5118694;27;21759;-81
2023/09/23 03:10:28;;;;;;;1.10;1.00;;;;;;;-145.69;71.13;52254.28;5136336;27;20220;-81
2023/09/23 03:13:02;;;;;;;5.70;0.83;;;;;;;-145.69;71.09;52240.41;5136639;27;20246;-81
2023/09/23 03:15:33;;;;;;;2.07;1.00;;;;;;;-145.69;71.56;52262.19;5116034;27;20209;-82
2023/09/23 03:18:03;;;;;;;3.53;0.90;;;;;;;-145.69;71.22;52264.16;5114651;27;20229;-81
2023/09/23 03:20:30;;;;;;;1.67;1.00;;;;;;;-145.69;71.37;52246.34;5136430;27;20207;-82
2023/09/23 03:22:57;;;;;;;1.47;0.83;;;;;;;-145.69;71.35;52230.50;5136043;27;20729;-82
2023/09/23 03:25:24;;;;;;;1.50;1.10;;;;;;;-145.69;71.77;52262.19;5136045;27;20197;-82
2023/09/23 03:27:52;;;;;;;1.93;1.13;;;;;;;-145.69;71.25;52260.22;5135804;27;20203;-81
2023/09/23 03:30:19;;;;;;;1.30;0.90;;;;;;;-145.69;70.82;52264.16;5128984;27;20194;-82
2023/09/23 03:32:46;;;;;;;5.93;0.93;;;;;;;-145.69;70.95;52254.28;5115494;28;20204;-81
2023/09/23 03:35:17;;;;;;;2.87;1.00;;;;;;;-145.69;70.31;52282.00;5130819;27;20201;-82
2023/09/23 03:37:49;;;;;;;1.30;0.87;;;;;;;-145.69;70.81;52258.22;5136112;27;20550;-81
2023/09/23 03:40:24;;;;;;;1.40;1.20;;;;;;;-145.69;71.13;52222.59;5099389;27;20225;-80
2023/09/23 03:42:52;;;;;;;1.20;0.90;;;;;;;-145.69;70.80;52234.47;5094780;28;20206;-81
2023/09/23 03:45:19;;;;;;;1.30;1.00;;;;;;;-145.69;70.86;52266.16;5124079;27;20238;-81
2023/09/23 03:47:46;;;;;;;2.73;1.03;;;;;;;-145.69;71.82;52268.13;5136119;27;20201;-82
2023/09/23 03:50:13;;;;;;;3.77;1.20;;;;;;;-145.69;71.33;52248.34;5117084;27;20341;-81
2023/09/23 03:52:41;;;;;;;3.20;1.30;;;;;;;-145.69;71.08;52256.25;5114883;28;20229;-82
2023/09/23 03:55:11;;;;;;;1.70;0.90;;;;;;;-145.69;71.30;52234.47;5115031;28;20205;-81
2023/09/23 03:57:38;;;;;;;1.73;1.27;;;;;;;-145.69;71.09;52242.38;5114730;27;20201;-81
2023/09/23 04:00:14;;;;;;;1.53;1.30;;;;;;;-145.69;71.01;52230.50;5126076;27;20636;-81
2023/09/23 04:02:40;;;;;;;2.63;1.23;;;;;;;-145.69;71.23;52224.56;5132096;27;20208;-82
2023/09/23 04:05:11;;;;;;;1.40;1.20;;;;;;;-145.69;71.64;52280.00;5122219;27;20194;-81
2023/09/23 04:07:39;;;;;;;2.17;1.10;;;;;;;-145.69;71.20;52268.13;5114555;28;20248;-82
2023/09/23 04:10:09;;;;;;;1.57;1.30;;;;;;;-145.69;70.99;52274.06;5129946;27;20196;-81
2023/09/23 04:12:37;;;;;;;1.80;0.90;;;;;;;-145.69;70.76;52244.38;5135064;27;20220;-81
2023/09/23 04:15:08;;;;;;;2.40;1.00;;;;;;;-145.69;70.92;52226.53;5135405;27;20209;-81
2023/09/23 04:17:36;;;;;;;1.87;1.40;;;;;;;-145.69;71.42;52252.28;5135022;27;20218;-81
2023/09/23 04:20:08;;;;;;;1.73;1.13;;;;;;;-145.69;71.54;52270.13;5119810;27;20197;-81
2023/09/23 04:22:37;;;;;;;1.50;1.17;;;;;;;-145.69;71.60;52266.16;5114340;28;20204;-81
2023/09/23 04:25:05;;;;;;;8.53;1.50;;;;;;;-145.69;72.29;52232.50;5114175;28;20206;-81
2023/09/23 04:27:33;;;;;;;1.53;1.20;;;;;;;-145.69;72.11;52230.50;5114307;28;20201;-82
2023/09/23 04:30:04;;;;;;;2.67;1.50;;;;;;;-145.69;71.97;52244.38;5124919;27;20202;-81
2023/09/23 04:32:31;;;;;;;2.23;1.53;;;;;;;-145.69;71.76;52262.19;5114262;28;20229;-81
2023/09/23 04:34:57;;;;;;;3.65;1.63;;;;;;;-145.69;73.23;52254.28;5113385;28;20435;-82
2023/09/23 04:37:24;;;;;;;2.43;1.60;;;;;;;-145.69;72.86;52293.88;5114059;28;20200;-81
2023/09/23 04:39:51;;;;;;;4.60;1.70;;;;;;;-145.69;72.19;52240.41;5123461;27;20209;-82
2023/09/23 04:42:17;;;;;;;1.60;1.33;;;;;;;-145.69;71.82;52250.31;5113941;28;20190;-81
2023/09/23 04:44:45;;;;;;;2.47;1.20;;;;;;;-145.69;72.37;52240.41;5113747;28;20201;-81
2023/09/23 04:47:12;;;;;;;4.80;1.10;;;;;;;-145.69;72.16;52246.34;5114126;28;20657;-81
2023/09/23 04:49:43;;;;;;;2.77;1.50;;;;;;;-145.69;72.41;52234.47;5113872;28;20745;-81
2023/09/23 04:52:10;;;;;;;3.47;1.30;;;;;;;-145.69;72.95;52262.19;5133090;27;20716;-81
2023/09/23 04:54:38;;;;;;;1.53;1.27;;;;;;;-145.69;72.24;52254.28;5134593;27;20293;-81
2023/09/23 04:57:09;;;;;;;2.30;1.70;;;;;;;-145.69;72.12;52206.75;5134423;27;20197;-81
2023/09/23 04:59:35;;;;;;;1.53;1.43;;;;;;;-145.69;72.29;52234.47;5134429;27;20207;-81
2023/09/23 05:02:05;;;;;;;1.83;1.27;;;;;;;-145.69;72.61;52260.22;5133363;27;20192;-81
2023/09/23 05:04:31;;;;;;;4.57;1.30;;;;;;;-145.69;72.19;52244.38;5134399;27;20288;-82
2023/09/23 05:07:00;;;;;;;1.40;1.10;;;;;;;-145.69;71.82;52250.31;5132627;27;20585;-81
2023/09/23 05:09:27;;;;;;;2.63;1.40;;;;;;;-145.69;71.87;52260.22;5134074;27;20204;-81
2023/09/23 05:11:53;;;;;;;3.73;1.47;;;;;;;-145.69;72.05;52252.28;5118076;27;20221;-81
2023/09/23 05:14:20;;;;;;;2.50;1.13;;;;;;;-145.69;71.99;52246.34;5113879;28;20205;-81
2023/09/23 05:16:50;;;;;;;2.53;1.57;;;;;;;-145.69;72.10;52258.22;5127539;27;20292;-81
2023/09/23 05:19:21;;;;;;;5.50;1.20;;;;;;;-145.69;72.67;52270.13;5130396;27;20277;-81
2023/09/23 05:21:50;;;;;;;1.67;1.30;;;;;;;-145.69;72.17;52250.31;5133040;27;20197;-81
2023/09/23 05:24:17;;;;;;;1.30;1.10;;;;;;;-145.69;72.02;52258.22;5126929;27;20254;-81
2023/09/23 05:26:43;;;;;;;1.30;1.20;;;;;;;-145.69;72.49;52258.22;5113404;28;20205;-82
2023/09/23 05:29:13;;;;;;;4.40;1.37;;;;;;;-145.69;72.81;52222.59;5113589;28;20202;-81
2023/09/23 05:31:40;;;;;;;3.33;1.47;;;;;;;-145.69;72.15;52248.34;5113612;28;20304;-81
2023/09/23 05:34:08;;;;;;;1.23;1.10;;;;;;;-145.69;72.02;52262.19;5113251;28;20682;-81
2023/09/23 05:36:38;;;;;;;1.57;1.30;;;;;;;-145.69;71.99;52232.50;5113250;28;20288;-82
2023/09/23 05:39:07;;;;;;;1.40;1.20;;;;;;;-145.69;72.24;52230.50;5111921;28;20193;-82
2023/09/23 05:41:39;;;;;;;1.60;1.13;;;;;;;-145.69;72.54;52246.34;5124064;28;20659;-82
2023/09/23 05:44:07;;;;;;;1.83;1.23;;;;;;;-145.69;72.54;52236.44;5133712;27;20683;-82
2023/09/23 05:46:33;;;;;;;3.53;1.30;;;;;;;-145.69;72.64;52248.34;5133589;27;20204;-81
2023/09/23 05:49:02;;;;;;;1.57;1.10;;;;;;;-145.69;72.51;52260.22;5133522;27;20204;-82
2023/09/23 05:51:29;;;;;;;2.37;1.20;;;;;;;-145.69;72.89;52278.03;5123991;27;20217;-82
2023/09/23 05:53:57;;;;;;;1.57;1.20;;;;;;;-145.69;72.91;52230.50;5120705;27;20188;-82
2023/09/23 05:56:23;;;;;;;1.83;1.30;;;;;;;-145.69;72.93;52250.31;5137658;27;20201;-81
2023/09/23 05:58:50;;;;;;;2.00;1.27;;;;;;;-145.69;73.04;52266.16;5137973;27;20200;-81
2023/09/23 06:01:18;;;;;;;2.37;1.30;;;;;;;-145.69;72.93;52252.28;5136899;27;20731;-82
2023/09/23 06:03:48;;;;;;;4.10;1.20;;;;;;;-145.69;72.58;52232.50;5134897;27;20224;-81
2023/09/23 06:06:14;;;;;;;5.23;1.30;;;;;;;-145.69;72.68;52250.31;5139230;27;20208;-81
2023/09/23 06:08:41;;;;;;;2.17;1.10;;;;;;;-145.69;71.67;52234.47;5116755;27;20258;-82
2023/09/23 06:11:11;;;;;;;1.93;1.20;;;;;;;-145.69;71.85;52254.28;5099788;28;20297;-81
2023/09/23 06:13:37;;;;;;;2.40;1.10;;;;;;;-145.69;72.03;52242.38;5100955;28;20672;-81
2023/09/23 06:16:04;;;;;;;2.43;1.23;;;;;;;-145.69;72.19;52224.56;5097629;28;20198;-81
2023/09/23 06:18:31;;;;;;;4.50;1.20;;;;;;;-145.69;72.03;52230.50;5131936;27;20703;-81
2023/09/23 06:21:01;;;;;;;1.30;1.20;;;;;;;-145.69;71.50;52226.53;5140636;27;20200;-81
2023/09/23 06:23:28;;;;;;;0.93;0.90;;;;;;;-145.69;72.14;52206.75;5145142;27;20269;-81
2023/09/23 06:25:55;;;;;;;2.73;1.20;;;;;;;-145.69;71.50;52242.38;5124479;27;20190;-80
2023/09/23 06:28:23;;;;;;;2.83;1.10;;;;;;;-145.69;72.22;52194.88;5138989;27;20197;-80
2023/09/23 06:30:49;;;;;;;1.57;1.20;;;;;;;-145.69;71.64;52208.72;5140613;27;20563;-81
2023/09/23 06:33:15;;;;;;;1.37;0.90;;;;;;;-145.69;70.87;52230.50;5140219;27;20216;-80
2023/09/23 06:35:41;;;;;;;1.37;1.07;;;;;;;-145.69;70.98;52202.78;5138316;27;20292;-81
2023/09/23 06:38:08;;;;;;;2.23;1.20;;;;;;;-145.69;71.96;52202.78;5138260;27;20223;-81
2023/09/23 06:40:34;;;;;;;1.43;1.30;;;;;;;-145.69;70.60;52210.72;5137713;27;20207;-81
2023/09/23 06:43:01;;;;;;;2.00;1.30;;;;;;;-145.69;71.09;52216.66;5137134;27;20200;-81
2023/09/23 06:45:29;;;;;;;2.17;1.00;;;;;;;-145.69;70.68;52220.59;5123634;27;20193;-80
2023/09/23 06:47:56;;;;;;;2.10;1.00;;;;;;;-145.69;70.18;52210.72;5117424;28;20291;-80
2023/09/23 06:50:22;;;;;;;3.93;0.80;;;;;;;-145.69;71.47;52202.78;5117370;28;20205;-80
2023/09/23 06:52:49;;;;;;;3.17;0.93;;;;;;;-145.69;71.18;52208.72;5118554;28;20659;-81
2023/09/23 06:55:16;;;;;;;0.70;0.70;;;;;;;-145.69;71.60;52184.97;5129972;27;20193;-81
2023/09/23 06:57:43;;;;;;;1.00;0.90;;;;;;;-145.69;70.64;52210.72;5137460;27;20223;-80
2023/09/23 07:00:11;;;;;;;2.05;0.75;;;;;;;-145.69;69.17;52198.81;5137538;27;20203;-81
2023/09/23 07:02:39;;;;;;;2.10;1.10;;;;;;;-145.69;69.81;52202.78;5130240;27;20194;-81
2023/09/23 07:05:06;;;;;;;1.58;1.00;;;;;;;-145.69;70.92;52222.59;5116075;27;20674;-81
2023/09/23 07:07:32;;;;;;;2.08;1.25;;;;;;;-145.69;69.01;52204.75;5116108;28;20235;-81
2023/09/23 07:09:59;;;;;;;2.83;1.42;;;;;;;-145.69;71.35;52248.34;5115913;28;20209;-81
2023/09/23 07:12:25;;;;;;;1.52;1.10;;;;;;;-145.69;71.27;52198.81;5136101;27;20238;-81
2023/09/23 07:14:52;;;;;;;1.63;1.02;;;;;;;-145.69;71.98;52210.72;5139542;27;20212;-80
2023/09/23 07:17:19;;;;;;;5.03;2.10;;;;;;;-145.69;72.04;52206.75;5138179;27;20670;-81
2023/09/23 07:19:48;;;;;;;7.20;3.92;;;;;;;-145.69;72.29;52177.03;5137722;27;20562;-81
2023/09/23 07:22:14;;;;;;;13.70;5.28;;;;;;;-145.69;72.65;52186.94;5139633;27;20204;-81
2023/09/23 07:24:41;;;;;;;2.70;1.83;;;;;;;-145.69;72.68;52202.78;5132280;27;20197;-80
2023/09/23 07:27:07;;;;;;;3.97;1.85;;;;;;;-145.69;73.15;52165.16;5119019;28;20220;-80
2023/09/23 07:29:34;;;;;;;4.15;1.05;;;;;;;-145.69;73.15;52177.03;5127852;27;20196;-81
2023/09/23 07:32:00;;;;;;;1.33;1.00;;;;;;;-145.69;73.64;52179.03;5137765;27;20230;-80
2023/09/23 07:34:27;;;;;;;2.42;1.00;;;;;;;-145.69;75.94;52190.91;5132839;27;20442;-80
2023/09/23 07:36:54;;;;;;;1.92;1.00;;;;;;;-145.69;73.52;52194.88;5117205;28;20201;-81
2023/09/23 07:39:22;;;;;;;0.75;0.75;;;;;;;-145.69;73.24;52181.00;5117144;27;20205;-80
2023/09/23 07:41:48;;;;;;;1.65;1.02;;;;;;;-145.69;74.17;52155.25;5117592;28;20735;-80
2023/09/23 07:44:15;;;;;;;14.93;4.40;;;;;;;-145.69;73.66;52167.13;5116735;27;20194;-81
2023/09/23 07:46:42;;;;;;;17.45;4.32;;;;;;;-145.69;74.12;52137.44;5138233;27;20232;-80
2023/09/23 07:49:09;;;;;;;13.02;3.92;;;;;;;-145.69;73.64;52194.88;5137356;27;20201;-81
2023/09/23 07:51:37;;;;;;;7.80;2.90;;;;;;;-145.69;72.92;52175.06;5137431;27;20655;-81
2023/09/23 07:54:05;;;;;;;6.80;2.25;;;;;;;-145.69;73.72;52159.22;5134892;27;20664;-81
2023/09/23 07:56:31;;;;;;;2.85;1.25;;;;;;;-145.69;69.93;52171.09;5130993;27;20194;-81
2023/09/23 07:58:58;;;;;;;1.75;0.80;;;;;;;-145.69;67.15;52202.78;5117112;28;20663;-80
2023/09/23 08:01:24;;;;;;;1.85;0.73;;;;;;;-145.69;66.03;52179.03;5118207;27;20525;-80
2023/09/23 08:03:52;;;;;;;4.80;0.80;;;;;;;-145.69;68.05;52167.13;5120824;27;20606;-81
2023/09/23 08:06:18;;;;;;;2.63;0.88;;;;;;;-145.69;58.21;52167.13;5115944;28;20300;-80
2023/09/23 08:08:45;;;;;;;2.97;0.75;;;;;;;-145.69;61.14;52167.13;5115283;28;20206;-81
2023/09/23 08:11:12;;;;;;;3.38;1.20;;;;;;;-145.69;62.45;52143.38;5114492;28;20204;-81
2023/09/23 08:13:39;;;;;;;1.48;0.80;;;;;;;-145.69;59.96;52157.25;5114984;27;20707;-81
2023/09/23 08:16:05;;;;;;;1.58;0.70;;;;;;;-145.69;63.73;52159.22;5114511;27;20204;-82
2023/09/23 08:18:32;;;;;;;2.83;0.85;;;;;;;-145.69;58.78;52155.25;5112730;28;20236;-82
2023/09/23 08:21:00;;;;;;;3.10;1.00;;;;;;;-145.69;58.24;52151.28;5100382;28;20569;-82
2023/09/23 08:23:27;;;;;;;2.17;0.93;;;;;;;-145.69;57.17;52139.41;5118574;27;20192;-82
2023/09/23 08:25:53;;;;;;;6.45;1.20;;;;;;;-145.69;58.57;52147.34;5141137;27;20197;-81
2023/09/23 08:28:22;;;;;;;4.40;1.20;;;;;;;-145.69;54.42;52121.59;5144348;27;20200;-81
2023/09/23 08:30:50;;;;;;;2.50;0.95;;;;;;;-145.69;57.87;52123.56;5140236;27;20256;-81
2023/09/23 08:33:16;;;;;;;3.53;1.40;;;;;;;-145.69;53.30;52135.47;5135039;27;20217;-81
2023/09/23 08:35:42;;;;;;;4.28;1.33;;;;;;;-145.69;56.90;52145.34;5124057;27;20209;-82
2023/09/23 08:38:09;;;;;;;3.67;1.55;;;;;;;-145.69;50.34;52127.53;5120350;28;20200;-81
2023/09/23 08:40:36;;;;;;;1.98;1.23;;;;;;;-145.69;51.76;52141.41;5118542;28;20647;-81
2023/09/23 08:43:05;;;;;;;10.63;1.38;;;;;;;-145.69;51.02;52133.47;5121863;27;20755;-82
2023/09/23 08:45:33;;;;;;;1.63;1.13;;;;;;;-145.69;50.12;52141.41;5098317;28;20202;-81
2023/09/23 08:48:02;;;;;;;3.47;1.08;;;;;;;-145.69;49.10;52099.81;5096205;28;20230;-81
2023/09/23 08:50:30;;;;;;;3.90;1.50;;;;;;;-145.69;47.60;52157.25;5094694;28;20194;-82
2023/09/23 08:52:59;;;;;;;2.28;1.42;;;;;;;-145.69;46.69;52121.59;5096657;27;20228;-81
2023/09/23 08:55:28;;;;;;;3.58;1.45;;;;;;;-145.69;46.36;52127.53;5131102;27;20678;-81
2023/09/23 08:57:55;;;;;;;4.13;1.50;;;;;;;-145.69;47.36;52115.66;5137364;27;20208;-81
2023/09/23 09:00:21;;;;;;;3.15;1.13;;;;;;;-145.69;47.94;52121.59;5135003;27;20192;-80
2023/09/23 09:02:49;;;;;;;2.85;1.88;;;;;;;-145.69;45.13;52127.53;5129537;27;20201;-81
2023/09/23 09:05:16;;;;;;;2.25;1.55;;;;;;;-145.69;45.36;52155.25;5113929;28;20198;-82
2023/09/23 09:07:42;;;;;;;2.20;1.35;;;;;;;-145.69;45.47;52131.50;5110541;28;20217;-80
2023/09/23 09:10:09;;;;;;;1.85;1.00;;;;;;;-145.69;46.08;52139.41;5113410;28;20696;-82
2023/09/23 09:12:36;;;;;;;1.95;1.27;;;;;;;-145.69;46.95;52127.53;5133448;27;20221;-83
2023/09/23 09:15:03;;;;;;;2.15;1.20;;;;;;;-145.69;46.84;52105.75;5097554;27;20296;-83
2023/09/23 09:17:32;;;;;;;3.35;0.93;;;;;;;-145.69;47.52;52149.31;5093154;28;20259;-82
2023/09/23 09:20:06;;;;;;;1.55;1.00;;;;;;;-145.69;47.60;52107.72;5093304;28;20288;-83
2023/09/23 09:22:33;;;;;;;3.17;1.27;;;;;;;-145.69;47.18;52135.47;5130831;27;20208;-82
2023/09/23 09:24:59;;;;;;;3.58;1.23;;;;;;;-145.69;48.19;52155.25;5116807;27;20303;-81
2023/09/23 09:27:26;;;;;;;2.22;1.00;;;;;;;-145.69;48.01;52123.56;5133478;27;20308;-79
2023/09/23 09:29:52;;;;;;;5.45;1.00;;;;;;;-145.69;47.27;52143.38;5099037;27;20201;-80
2023/09/23 09:32:26;;;;;;;4.15;0.90;;;;;;;-145.69;47.35;52111.69;5125947;28;20189;-80
2023/09/23 09:34:55;;;;;;;3.85;1.33;;;;;;;-145.69;48.71;52135.47;5117016;28;20196;-80
2023/09/23 09:37:25;;;;;;;1.92;0.90;;;;;;;-145.69;48.46;52129.50;5134929;27;20651;-79
2023/09/23 09:39:56;;;;;;;1.83;0.77;;;;;;;-145.69;48.12;52103.78;5120046;27;20208;-80
2023/09/23 09:42:28;;;;;;;1.38;0.63;;;;;;;-145.69;48.21;52163.19;5131108;28;20200;-80
2023/09/23 09:44:56;;;;;;;3.45;0.77;;;;;;;-145.69;48.67;52111.69;5102102;27;20198;-81
2023/09/23 09:47:23;;;;;;;1.13;0.60;;;;;;;-145.69;46.51;52163.19;5093073;28;20204;-80
2023/09/23 09:49:52;;;;;;;1.20;0.98;;;;;;;-145.69;46.23;52099.81;5110388;28;20204;-79
2023/09/23 09:52:23;;;;;;;1.27;0.77;;;;;;;-145.69;48.24;52095.84;5128597;28;20221;-81
2023/09/23 09:54:52;;;;;;;3.80;0.50;;;;;;;-145.69;48.56;52157.25;5117976;27;20679;-80
2023/09/23 09:57:20;;;;;;;2.85;0.80;;;;;;;-145.69;48.53;52111.69;5113179;28;20261;-81
2023/09/23 09:59:46;;;;;;;2.97;0.80;;;;;;;-145.69;48.58;52111.69;5113558;28;20197;-81
2023/09/23 10:02:14;;;;;;;1.55;0.80;;;;;;;-145.69;47.97;52161.19;5127423;28;20208;-81
2023/09/23 10:04:46;;;;;;;2.33;0.73;;;;;;;-145.69;48.53;52099.81;5114115;28;20243;-81
2023/09/23 10:07:12;;;;;;;2.13;0.75;;;;;;;-145.69;48.77;52131.50;5114210;28;20204;-82
2023/09/23 10:09:51;;;;;;;1.30;0.63;;;;;;;-145.69;47.60;52111.69;5101061;28;20197;-81
2023/09/23 10:12:19;;;;;;;0.70;0.60;;;;;;;-145.69;47.68;52123.56;5109264;28;20280;-80
2023/09/23 10:14:53;;;;;;;1.90;0.80;;;;;;;-145.69;47.23;52107.72;5099221;28;20237;-81
2023/09/23 10:17:27;;;;;;;2.65;0.65;;;;;;;-145.69;47.85;52137.44;5093568;28;20198;-81
2023/09/23 10:19:55;;;;;;;0.70;0.60;;;;;;;-145.69;47.84;52123.56;5110583;28;20198;-81
2023/09/23 10:22:23;;;;;;;4.53;0.60;;;;;;;-145.69;48.92;52127.53;5135328;28;20273;-81
2023/09/23 10:25:00;;;;;;;3.03;0.65;;;;;;;-145.69;48.17;52103.78;5125369;27;20284;-80
2023/09/23 10:27:27;;;;;;;1.77;0.70;;;;;;;-145.69;47.68;52163.19;5119074;28;20949;-80
2023/09/23 10:29:53;;;;;;;1.23;0.60;;;;;;;-145.69;44.92;52117.63;5122263;28;20197;-81
2023/09/23 10:32:20;;;;;;;3.03;0.57;;;;;;;-145.69;48.31;52119.63;5117104;28;20197;-81
2023/09/23 10:34:48;;;;;;;2.17;0.90;;;;;;;-145.69;46.85;52119.63;5118385;28;20226;-81
2023/09/23 10:37:24;;;;;;;2.40;0.70;;;;;;;-145.69;45.73;52127.53;5119732;28;20205;-81
2023/09/23 10:39:50;;;;;;;0.68;0.60;;;;;;;-145.69;45.80;52135.47;5110058;27;20209;-80
2023/09/23 10:42:19;;;;;;;1.35;0.68;;;;;;;-145.69;45.19;52107.72;5129607;27;20186;-82
2023/09/23 10:44:47;;;;;;;1.63;0.70;;;;;;;-145.69;44.32;52143.38;5118507;28;20227;-81
2023/09/23 10:47:14;;;;;;;1.02;0.57;;;;;;;-145.69;44.84;52099.81;5118763;28;20301;-80
2023/09/23 10:49:40;;;;;;;2.05;0.57;;;;;;;-145.69;45.48;52095.84;5105193;28;20194;-81
2023/09/23 10:52:07;;;;;;;2.90;0.82;;;;;;;-145.69;44.15;52060.22;5121413;27;20220;-80
2023/09/23 10:54:34;;;;;;;3.17;0.80;;;;;;;-145.69;44.00;52068.13;5123122;27;20761;-80
2023/09/23 10:57:01;;;;;;;1.38;0.77;;;;;;;-145.69;41.87;52087.94;5116463;28;20237;-81
2023/09/23 10:59:30;;;;;;;0.80;0.70;;;;;;;-145.69;40.73;52074.06;5116194;28;20280;-80
2023/09/23 11:01:56;;;;;;;0.85;0.60;;;;;;;-145.69;41.62;52070.09;5118250;27;20213;-80
2023/09/23 11:04:23;;;;;;;0.85;0.60;;;;;;;-145.69;39.66;52060.22;5122251;28;20193;-80
2023/09/23 11:06:50;;;;;;;0.82;0.50;;;;;;;-145.69;40.17;52046.34;5128452;28;20193;-80
2023/09/23 11:09:20;;;;;;;3.33;0.63;;;;;;;-145.69;40.39;52056.25;5120634;28;20671;-82
2023/09/23 11:11:47;;;;;;;1.58;0.63;;;;;;;-145.69;40.47;52028.53;5117964;27;20194;-81
2023/09/23 11:14:13;;;;;;;1.42;0.60;;;;;;;-145.69;38.83;52036.44;5118500;28;20225;-81
2023/09/23 11:16:48;;;;;;;2.15;0.70;;;;;;;-145.69;37.96;52022.59;5118514;28;20201;-81
2023/09/23 11:19:17;;;;;;;3.05;0.70;;;;;;;-145.69;38.78;52008.72;5116742;27;20647;-82
2023/09/23 11:21:44;;;;;;;3.90;0.70;;;;;;;-145.69;38.34;52064.16;5137834;27;20708;-81